createdAt,value
2022-09-17T00:03:55.685Z,81.60
2022-09-17T00:08:58.481Z,81.68
2022-09-17T00:14:03.579Z,82.13
2022-09-17T00:19:10.138Z,83.48
2022-09-17T00:24:14.238Z,83.36
2022-09-17T00:29:17.206Z,83.79
2022-09-17T00:34:23.955Z,83.23
2022-09-17T00:39:26.508Z,83.98
2022-09-17T00:44:46.116Z,84.27
2022-09-17T00:49:53.358Z,85.04
2022-09-17T00:55:01.352Z,84.95
2022-09-17T01:00:06.426Z,84.44
2022-09-17T01:05:12.090Z,83.64
2022-09-17T01:10:27.608Z,84.65
2022-09-17T01:15:37.267Z,84.06
2022-09-17T01:21:08.253Z,83.80
2022-09-17T01:26:35.163Z,83.70
2022-09-17T01:31:47.117Z,84.99
2022-09-17T01:37:01.563Z,84.80
2022-09-17T01:42:13.229Z,84.84
2022-09-17T01:47:22.602Z,85.82
2022-09-17T01:52:28.937Z,85.24
2022-09-17T01:57:36.619Z,85.30
2022-09-17T02:02:45.365Z,86.14
2022-09-17T02:07:53.297Z,86.09
2022-09-17T02:13:00.401Z,86.67
2022-09-17T02:18:08.668Z,85.99
2022-09-17T02:23:16.627Z,87.49
2022-09-17T02:28:27.788Z,85.88
2022-09-17T02:33:34.649Z,87.38
2022-09-17T02:38:39.438Z,87.67
2022-09-17T02:43:51.557Z,86.20
2022-09-17T02:49:10.169Z,87.30
2022-09-17T02:54:19.279Z,89.08
2022-09-17T02:59:26.277Z,90.34
2022-09-17T03:04:31.876Z,89.77
2022-09-17T03:09:34.285Z,89.87
2022-09-17T03:14:36.713Z,90.58
2022-09-17T03:19:40.580Z,91.82
2022-09-17T03:24:43.031Z,92.48
2022-09-17T03:29:45.492Z,92.53
2022-09-17T03:34:49.248Z,93.77
2022-09-17T03:39:51.771Z,94.00
2022-09-17T03:44:54.192Z,96.19
2022-09-17T03:49:57.943Z,97.53
2022-09-17T03:55:00.421Z,97.38
2022-09-17T04:00:03.129Z,97.73
2022-09-17T04:05:12.239Z,98.60
2022-09-17T04:10:14.720Z,98.03
2022-09-17T04:15:17.206Z,98.75
2022-09-17T04:20:20.979Z,100.00
2022-09-17T04:25:23.496Z,98.21
2022-09-17T04:30:26.016Z,98.83
2022-09-17T04:35:29.985Z,99.02
2022-09-17T04:40:32.544Z,99.06
2022-09-17T04:45:34.986Z,98.77
2022-09-17T04:50:38.734Z,99.53
2022-09-17T04:55:41.172Z,99.59
2022-09-17T05:00:43.731Z,99.49
2022-09-17T05:05:47.562Z,100.00
2022-09-17T05:10:51.105Z,100.00
2022-09-17T05:15:56.490Z,99.72
2022-09-17T05:21:00.270Z,100.00
2022-09-17T05:26:02.886Z,100.00
2022-09-17T05:31:05.431Z,99.56
2022-09-17T05:36:09.844Z,98.56
2022-09-17T05:41:12.281Z,95.66
2022-09-17T05:46:14.784Z,97.96
2022-09-17T05:51:20.385Z,97.73
2022-09-17T05:56:23.968Z,97.09
2022-09-17T06:01:26.677Z,96.41
2022-09-17T06:06:30.988Z,96.35
2022-09-17T06:11:33.639Z,95.34
2022-09-17T06:16:36.364Z,94.10
2022-09-17T06:21:40.182Z,93.04
2022-09-17T06:26:42.809Z,90.93
2022-09-17T06:31:46.125Z,90.60
2022-09-17T06:36:51.181Z,89.51
2022-09-17T06:41:55.522Z,89.30
2022-09-17T06:46:58.118Z,89.34
2022-09-17T06:52:02.207Z,89.12
2022-09-17T06:57:04.931Z,88.78
2022-09-17T07:02:08.147Z,87.88
2022-09-17T07:07:11.995Z,85.98
2022-09-17T07:12:14.949Z,85.17
2022-09-17T07:17:17.407Z,86.29
2022-09-17T07:22:21.173Z,84.31
2022-09-17T07:27:23.805Z,82.10
2022-09-17T07:32:26.613Z,81.46
2022-09-17T07:37:30.406Z,82.13
2022-09-17T07:42:33.383Z,80.94
2022-09-17T07:47:40.306Z,80.73
2022-09-17T07:52:48.062Z,79.44
2022-09-17T07:57:53.686Z,78.72
2022-09-17T08:02:56.746Z,75.30
2022-09-17T08:08:00.607Z,75.28
2022-09-17T08:13:03.092Z,76.78
2022-09-17T08:18:05.605Z,76.25
2022-09-17T08:23:09.458Z,76.40
2022-09-17T08:28:11.947Z,74.35
2022-09-17T08:33:14.378Z,72.31
2022-09-17T08:38:18.455Z,72.86
2022-09-17T08:43:21.008Z,73.71
2022-09-17T08:48:26.594Z,75.63
2022-09-17T08:53:56.939Z,79.75
2022-09-17T08:59:21.445Z,83.95
2022-09-17T09:04:33.498Z,84.33
2022-09-17T09:09:41.298Z,82.39
2022-09-17T09:14:50.057Z,81.18
2022-09-17T09:19:54.397Z,80.45
2022-09-17T09:25:13.101Z,77.78
2022-09-17T09:30:18.675Z,76.34
2022-09-17T09:35:23.280Z,75.63
2022-09-17T09:40:47.958Z,73.19
2022-09-17T09:46:08.651Z,72.91
2022-09-17T09:51:24.494Z,70.56
2022-09-17T09:56:39.710Z,69.78
2022-09-17T10:01:45.195Z,70.14
2022-09-17T10:06:50.499Z,69.07
2022-09-17T10:12:07.498Z,68.48
2022-09-17T10:17:16.958Z,69.74
2022-09-17T10:22:24.819Z,66.54
2022-09-17T10:27:29.988Z,64.16
2022-09-17T10:32:32.436Z,62.24
2022-09-17T10:37:44.226Z,59.71
2022-09-17T10:42:48.790Z,54.84
2022-09-17T10:47:52.062Z,50.02
2022-09-17T10:52:57.251Z,42.85
2022-09-17T10:58:24.164Z,46.12
2022-09-17T11:03:53.097Z,45.35
2022-09-17T11:09:11.028Z,45.23
2022-09-17T11:14:28.282Z,40.22
2022-09-17T11:19:41.599Z,37.72
2022-09-17T11:25:08.927Z,37.32
2022-09-17T11:30:17.904Z,36.36
2022-09-17T11:35:25.131Z,40.43
2022-09-17T11:40:36.984Z,37.42
2022-09-17T11:45:46.565Z,38.15
2022-09-17T11:50:54.434Z,36.58
2022-09-17T11:56:00.811Z,35.84
2022-09-17T12:01:09.464Z,33.24
2022-09-17T12:06:17.328Z,33.58
2022-09-17T12:11:23.892Z,34.54
2022-09-17T12:16:32.864Z,33.66
2022-09-17T12:21:42.968Z,35.88
2022-09-17T12:26:59.367Z,36.88
2022-09-17T12:32:14.617Z,36.57
2022-09-17T12:37:25.920Z,43.08
2022-09-17T12:42:48.567Z,44.24
2022-09-17T12:48:24.708Z,38.19
2022-09-17T12:53:31.726Z,41.33
2022-09-17T12:58:56.409Z,46.06
2022-09-17T13:04:29.796Z,40.82
2022-09-17T13:10:13.731Z,36.38
2022-09-17T13:15:31.655Z,38.81
2022-09-17T13:20:43.133Z,32.96
2022-09-17T13:25:53.425Z,32.51
2022-09-17T13:30:57.957Z,32.05
2022-09-17T13:36:03.684Z,31.31
2022-09-17T13:41:20.398Z,31.53
2022-09-17T13:46:24.982Z,32.06
2022-09-17T13:51:57.321Z,31.34
2022-09-17T13:57:10.129Z,33.12
2022-09-17T14:02:35.470Z,32.74
2022-09-17T14:07:58.899Z,32.78
2022-09-17T14:13:28.490Z,38.82
2022-09-17T14:18:37.286Z,38.91
2022-09-17T14:23:46.371Z,41.23
2022-09-17T14:28:55.492Z,44.94
2022-09-17T14:33:58.550Z,39.41
2022-09-17T14:39:03.770Z,35.24
2022-09-17T14:44:11.354Z,37.98
2022-09-17T14:49:16.066Z,39.72
2022-09-17T14:54:26.104Z,38.81
2022-09-17T14:59:50.211Z,40.88
2022-09-17T15:04:52.594Z,47.54
2022-09-17T15:10:07.565Z,49.78
2022-09-17T15:15:19.303Z,51.90
2022-09-17T15:20:24.933Z,51.71
2022-09-17T15:25:32.333Z,51.20
2022-09-17T15:30:34.898Z,51.29
2022-09-17T15:35:37.372Z,52.82
2022-09-17T15:40:42.637Z,57.56
2022-09-17T15:45:45.436Z,61.28
2022-09-17T15:50:53.218Z,61.61
2022-09-17T15:56:09.532Z,64.18
2022-09-17T16:01:54.056Z,65.79
2022-09-17T16:07:03.894Z,63.84
2022-09-17T16:12:08.112Z,65.77
2022-09-17T16:17:22.980Z,65.76
2022-09-17T16:22:26.405Z,65.56
2022-09-17T16:27:33.817Z,65.98
2022-09-17T16:32:36.541Z,64.87
2022-09-17T16:37:39.011Z,65.87
2022-09-17T16:42:42.865Z,66.81
2022-09-17T16:47:45.351Z,65.72
2022-09-17T16:52:47.851Z,66.21
2022-09-17T16:57:51.923Z,65.77
2022-09-17T17:02:57.275Z,66.87
2022-09-17T17:08:03.242Z,66.47
2022-09-17T17:13:10.966Z,66.90
2022-09-17T17:18:13.446Z,70.66
2022-09-17T17:23:16.062Z,70.93
2022-09-17T17:28:20.297Z,70.16
2022-09-17T17:33:22.736Z,69.62
2022-09-17T17:38:25.281Z,73.79
2022-09-17T17:43:29.006Z,81.55
2022-09-17T17:48:31.461Z,86.30
2022-09-17T17:53:34.304Z,92.83
2022-09-17T17:58:38.586Z,94.25
2022-09-17T18:03:41.415Z,94.22
2022-09-17T18:08:45.535Z,99.44
2022-09-17T18:13:52.144Z,98.03
2022-09-17T18:18:57.140Z,97.35
2022-09-17T18:23:59.749Z,95.61
2022-09-17T18:29:07.721Z,94.96
2022-09-17T18:34:13.144Z,100.00
2022-09-17T18:39:56.466Z,98.12
2022-09-17T18:44:40.273Z,95.14
2022-09-17T18:49:42.676Z,98.97
2022-09-17T18:54:45.904Z,96.22
2022-09-17T18:59:50.516Z,98.10
2022-09-17T19:04:53.739Z,100.00
2022-09-17T19:09:57.612Z,98.23
2022-09-17T19:15:01.607Z,100.00
2022-09-17T19:20:05.612Z,97.83
2022-09-17T19:25:09.438Z,99.07
2022-09-17T19:30:14.582Z,99.51
2022-09-17T19:35:17.537Z,100.00
2022-09-17T19:40:20.896Z,100.00
2022-09-17T19:45:25.893Z,100.00
2022-09-17T19:50:35.695Z,100.00
2022-09-17T19:55:39.254Z,100.00
2022-09-17T20:00:43.629Z,100.00
2022-09-17T20:05:46.074Z,100.00
2022-09-17T20:10:50.176Z,100.00
2022-09-17T20:15:53.969Z,100.00
2022-09-17T20:20:56.615Z,100.00
2022-09-17T20:26:10.553Z,100.00
2022-09-17T20:31:16.616Z,100.00
2022-09-17T20:36:20.893Z,100.00
2022-09-17T20:41:23.356Z,100.00
2022-09-17T20:46:29.223Z,100.00
2022-09-17T20:51:32.720Z,100.00
2022-09-17T20:56:36.068Z,100.00
2022-09-17T21:01:40.669Z,100.00
2022-09-17T21:06:43.537Z,100.00
2022-09-17T21:11:47.459Z,100.00
2022-09-17T21:16:51.803Z,100.00
2022-09-17T21:21:54.636Z,100.00
2022-09-17T21:26:57.116Z,100.00
2022-09-17T21:32:01.222Z,100.00
2022-09-17T21:37:04.954Z,100.00
2022-09-17T21:42:07.952Z,100.00
2022-09-17T21:47:12.524Z,100.00
2022-09-17T21:52:15.064Z,100.00
2022-09-17T21:57:17.514Z,100.00
2022-09-17T22:02:21.232Z,100.00
2022-09-17T22:07:23.642Z,100.00
2022-09-17T22:12:26.045Z,100.00
2022-09-17T22:17:29.989Z,100.00
2022-09-17T22:22:32.479Z,100.00
2022-09-17T22:27:35.123Z,100.00
2022-09-17T22:32:39.195Z,100.00
2022-09-17T22:37:41.663Z,100.00
2022-09-17T22:42:44.096Z,100.00
2022-09-17T22:47:47.845Z,100.00
2022-09-17T22:52:50.375Z,100.00
2022-09-17T22:57:52.856Z,100.00
2022-09-17T23:02:56.613Z,100.00
2022-09-17T23:07:59.095Z,100.00
2022-09-17T23:13:01.547Z,100.00
2022-09-17T23:18:05.798Z,100.00
2022-09-17T23:23:08.266Z,100.00
2022-09-17T23:28:13.420Z,100.00
2022-09-17T23:33:17.192Z,100.00
2022-09-17T23:38:19.645Z,100.00
2022-09-17T23:43:22.298Z,100.00
2022-09-17T23:48:26.134Z,100.00
2022-09-17T23:53:30.333Z,100.00
2022-09-17T23:58:34.224Z,100.00
